Time;durP1;ratioP1;P1;durP2;ratioP2;P2;SDS_P1;SDS_P2;PMS_P1;PMS_P2;Temp;Humidity;BMP_temperature;BMP_pressure;BME280_temperature;BME280_humidity;BME280_pressure;Samples;Min_cycle;Max_cycle;Signal;HPM_P1;HPM_P2
2021/07/04 00:00:33;;;;;;;;;11.33;9.67;;;;;18.59;74.91;100755.84;5101695;27;45597;-79
2021/07/04 00:03:00;;;;;;;;;7.33;7.00;;;;;18.58;74.85;100748.00;5102186;27;45354;-77
2021/07/04 00:05:31;;;;;;;;;7.00;7.00;;;;;18.57;75.13;100746.34;5101912;27;45447;-77
2021/07/04 00:07:57;;;;;;;;;9.00;9.00;;;;;18.57;75.22;100741.78;5083117;27;47132;-77
2021/07/04 00:10:27;;;;;;;;;9.00;9.00;;;;;18.50;75.22;100736.47;5101802;27;45365;-76
2021/07/04 00:12:52;;;;;;;;;10.33;8.67;;;;;18.50;75.24;100732.97;5083698;27;45301;-77
2021/07/04 00:15:24;;;;;;;;;8.67;8.00;;;;;18.49;74.99;100724.09;5083078;27;46160;-77
2021/07/04 00:17:49;;;;;;;;;10.00;10.00;;;;;18.46;75.12;100716.47;5083181;27;47264;-77
2021/07/04 00:20:19;;;;;;;;;4.33;4.00;;;;;18.44;74.80;100721.25;5101444;27;45448;-79
2021/07/04 00:22:46;;;;;;;;;9.00;8.33;;;;;18.46;74.98;100718.34;5101728;27;45250;-79
2021/07/04 00:25:14;;;;;;;;;7.67;7.67;;;;;18.39;75.21;100711.19;5101508;27;45314;-79
2021/07/04 00:27:39;;;;;;;;;8.67;8.67;;;;;18.42;75.15;100724.19;5101375;27;45284;-80
2021/07/04 00:30:15;;;;;;;;;7.33;7.33;;;;;18.38;74.40;100709.53;5100954;27;45319;-80
2021/07/04 00:32:41;;;;;;;;;9.00;9.00;;;;;18.37;74.86;100720.50;5101612;27;45310;-77
2021/07/04 00:35:08;;;;;;;;;8.00;6.33;;;;;18.32;75.32;100718.53;5082817;27;46142;-77
2021/07/04 00:37:33;;;;;;;;;8.00;8.00;;;;;18.33;75.19;100724.72;5101242;27;46575;-77
2021/07/04 00:39:59;;;;;;;;;11.33;9.67;;;;;18.31;75.86;100716.06;5101404;27;45226;-77
2021/07/04 00:42:24;;;;;;;;;9.33;8.33;;;;;18.24;75.71;100706.19;5101384;27;45249;-77
2021/07/04 00:44:52;;;;;;;;;8.00;8.00;;;;;18.26;75.63;100709.47;5101238;27;45177;-77
2021/07/04 00:47:17;;;;;;;;;12.33;9.67;;;;;18.28;75.58;100707.38;5101272;27;45414;-79
2021/07/04 00:49:42;;;;;;;;;7.33;7.33;;;;;18.25;75.89;100699.75;5101164;27;45237;-80
2021/07/04 00:52:08;;;;;;;;;11.00;9.33;;;;;18.26;76.01;100693.31;5100874;27;45259;-80
2021/07/04 00:54:34;;;;;;;;;7.00;7.00;;;;;18.23;76.13;100693.78;5082888;27;45411;-80
2021/07/04 00:57:01;;;;;;;;;7.67;6.67;;;;;18.31;75.82;100706.09;5082648;27;47243;-79
2021/07/04 00:59:26;;;;;;;;;7.00;7.00;;;;;18.29;76.21;100703.63;5100973;27;45247;-77
2021/07/04 01:01:57;;;;;;;;;7.33;7.33;;;;;18.29;75.70;100709.03;5082679;27;45377;-77
2021/07/04 01:04:22;;;;;;;;;8.33;8.33;;;;;18.29;75.68;100703.63;5100814;27;45487;-77
2021/07/04 01:06:47;;;;;;;;;8.33;8.00;;;;;18.27;76.03;100704.91;5100751;27;46294;-77
2021/07/04 01:09:13;;;;;;;;;7.00;7.00;;;;;18.23;75.61;100693.78;5082665;27;45306;-77
2021/07/04 01:11:38;;;;;;;;;9.67;9.67;;;;;18.26;75.24;100703.28;5101045;27;45273;-77
2021/07/04 01:14:04;;;;;;;;;7.00;6.33;;;;;18.21;75.35;100685.13;5100948;27;45458;-77
2021/07/04 01:16:29;;;;;;;;;11.67;11.00;;;;;18.22;75.46;100692.16;5100589;27;45359;-80
2021/07/04 01:18:55;;;;;;;;;8.00;8.00;;;;;18.17;75.42;100686.66;5100666;27;45353;-80
2021/07/04 01:21:22;;;;;;;;;8.67;8.00;;;;;18.16;75.85;100690.34;5100803;27;45422;-80
2021/07/04 01:23:48;;;;;;;;;9.00;9.00;;;;;18.10;75.91;100689.41;5100691;27;45263;-80
2021/07/04 01:26:13;;;;;;;;;12.00;10.00;;;;;18.05;76.05;100678.50;5100469;27;45294;-80
2021/07/04 01:28:39;;;;;;;;;7.67;7.00;;;;;18.07;76.08;100684.44;5100737;27;45284;-77
2021/07/04 01:31:05;;;;;;;;;8.67;8.00;;;;;18.05;76.98;100671.22;5100295;27;45709;-77
2021/07/04 01:33:30;;;;;;;;;6.67;6.67;;;;;18.07;76.31;100679.06;5100571;27;45198;-77
2021/07/04 01:35:56;;;;;;;;;7.33;7.33;;;;;18.04;76.22;100671.44;5100244;27;46132;-77
2021/07/04 01:38:21;;;;;;;;;7.67;7.67;;;;;18.07;77.21;100683.63;5100491;27;45239;-77
2021/07/04 01:40:47;;;;;;;;;8.67;8.00;;;;;18.05;76.53;100678.50;5100797;27;45240;-77
2021/07/04 01:43:12;;;;;;;;;9.00;8.00;;;;;18.06;76.34;100669.38;5100363;27;45355;-77
2021/07/04 01:45:39;;;;;;;;;10.00;9.00;;;;;18.00;76.25;100664.88;5100097;27;45604;-79
2021/07/04 01:48:04;;;;;;;;;8.00;8.00;;;;;18.01;76.24;100664.66;5100358;27;45428;-79
2021/07/04 01:50:33;;;;;;;;;9.67;9.67;;;;;18.02;76.94;100677.03;5100403;27;45295;-80
2021/07/04 01:52:59;;;;;;;;;8.00;8.00;;;;;17.99;76.65;100671.31;5081862;27;48253;-80
2021/07/04 01:55:25;;;;;;;;;8.33;8.00;;;;;17.96;76.80;100667.19;5100207;27;45324;-79
2021/07/04 01:57:50;;;;;;;;;7.33;7.33;;;;;17.98;76.33;100664.28;5081831;27;45284;-77
2021/07/04 02:00:22;;;;;;;;;6.33;6.00;;;;;18.00;76.45;100667.56;5099802;27;45243;-77
2021/07/04 02:02:51;;;;;;;;;10.67;8.00;;;;;17.98;76.16;100659.72;5100101;27;45289;-76
2021/07/04 02:05:17;;;;;;;;;7.00;7.00;;;;;17.94;76.19;100658.53;5103190;27;46026;-77
2021/07/04 02:07:42;;;;;;;;;5.33;5.00;;;;;17.96;77.21;100653.75;5103551;27;45364;-77
2021/07/04 02:10:12;;;;;;;;;7.00;7.00;;;;;18.02;76.80;100660.91;5104112;27;45320;-77
2021/07/04 02:12:38;;;;;;;;;6.00;6.00;;;;;18.02;76.74;100658.22;5103537;27;46035;-77
2021/07/04 02:15:15;;;;;;;;;8.67;8.00;;;;;17.97;76.51;100660.78;5103358;27;46100;-79
2021/07/04 02:17:41;;;;;;;;;6.00;6.00;;;;;17.97;76.27;100662.66;5103486;27;45246;-79
2021/07/04 02:20:37;;;;;;;;;8.67;7.33;;;;;17.96;76.56;100663.69;5103555;27;45222;-79
2021/07/04 02:23:11;;;;;;;;;8.00;7.00;;;;;17.92;76.21;100672.22;5084063;27;46095;-79
2021/07/04 02:25:39;;;;;;;;;8.67;8.67;;;;;17.91;76.67;100657.13;5084848;27;47942;-79
2021/07/04 02:28:06;;;;;;;;;8.67;8.67;;;;;17.91;76.51;100659.81;5103439;27;45808;-77
2021/07/04 02:30:32;;;;;;;;;8.00;8.00;;;;;17.94;76.48;100655.03;5091809;27;45359;-77
2021/07/04 02:33:02;;;;;;;;;7.00;4.00;;;;;17.96;76.82;100655.63;5103142;27;45598;-77
2021/07/04 02:35:28;;;;;;;;;9.33;8.67;;;;;17.97;76.35;100652.72;5084999;27;48144;-77
2021/07/04 02:37:54;;;;;;;;;7.00;7.00;;;;;17.93;76.13;100646.16;5084957;27;45270;-77
2021/07/04 02:40:19;;;;;;;;;6.33;6.33;;;;;18.01;76.88;100656.59;5103520;27;45521;-77
2021/07/04 02:42:45;;;;;;;;;7.67;6.67;;;;;18.02;76.52;100660.13;5103340;27;45486;-77
2021/07/04 02:45:11;;;;;;;;;7.00;7.00;;;;;17.98;76.98;100648.16;5103169;27;45340;-79
2021/07/04 02:47:36;;;;;;;;;7.00;7.00;;;;;18.00;77.13;100646.91;5103155;27;45388;-79
2021/07/04 02:50:04;;;;;;;;;6.67;6.67;;;;;18.03;76.88;100648.31;5103288;27;45308;-80
2021/07/04 02:52:29;;;;;;;;;7.00;7.00;;;;;18.05;76.90;100649.72;5102989;27;45404;-80
2021/07/04 02:54:55;;;;;;;;;8.33;8.33;;;;;18.07;76.21;100643.31;5102901;27;46107;-79
2021/07/04 02:57:20;;;;;;;;;10.67;7.33;;;;;18.07;76.68;100651.38;5103198;27;45295;-77
2021/07/04 02:59:45;;;;;;;;;6.00;6.00;;;;;18.11;76.53;100663.34;5103003;27;45322;-79
2021/07/04 03:02:11;;;;;;;;;8.33;7.67;;;;;18.06;76.71;100650.53;5102812;27;45259;-80
2021/07/04 03:04:36;;;;;;;;;8.33;8.33;;;;;18.11;76.84;100655.28;5102841;27;45752;-79
2021/07/04 03:07:02;;;;;;;;;6.67;6.67;;;;;18.08;76.98;100651.13;5102622;27;45271;-80
2021/07/04 03:09:27;;;;;;;;;8.33;8.33;;;;;18.09;76.68;100652.78;5102981;27;45385;-80
2021/07/04 03:11:55;;;;;;;;;9.00;7.33;;;;;18.01;76.89;100635.09;5102907;27;45268;-78
2021/07/04 03:14:21;;;;;;;;;7.67;7.67;;;;;18.12;77.03;100640.78;5102460;27;46063;-79
2021/07/04 03:16:46;;;;;;;;;8.67;8.67;;;;;18.14;76.83;100649.44;5102614;27;45308;-77
2021/07/04 03:19:12;;;;;;;;;8.33;8.00;;;;;18.08;76.59;100623.44;5102825;27;45267;-77
2021/07/04 03:21:37;;;;;;;;;7.67;7.67;;;;;18.19;76.87;100630.75;5102657;27;45506;-77
2021/07/04 03:24:03;;;;;;;;;8.33;7.33;;;;;18.18;76.61;100634.50;5102734;27;45262;-77
2021/07/04 03:26:28;;;;;;;;;7.00;6.33;;;;;18.12;76.63;100633.53;5102537;27;45339;-77
2021/07/04 03:28:53;;;;;;;;;6.33;6.33;;;;;18.13;76.56;100620.88;5102705;27;45448;-80
2021/07/04 03:31:19;;;;;;;;;9.00;7.67;;;;;18.10;76.45;100616.78;5101878;27;45527;-80
2021/07/04 03:33:44;;;;;;;;;7.00;6.00;;;;;18.12;76.46;100611.19;5102228;27;45224;-80
2021/07/04 03:36:09;;;;;;;;;6.67;6.33;;;;;18.17;77.37;100614.03;5083501;27;45166;-79
2021/07/04 03:38:35;;;;;;;;;9.00;9.00;;;;;18.18;76.88;100607.59;5102650;27;45259;-80
2021/07/04 03:41:00;;;;;;;;;8.00;8.00;;;;;18.02;76.82;100592.91;5101108;27;46067;-78
2021/07/04 03:43:26;;;;;;;;;6.67;6.33;;;;;18.16;77.12;100615.88;5100851;27;47151;-78
2021/07/04 03:45:52;;;;;;;;;9.00;8.00;;;;;18.22;76.64;100627.59;5102105;27;45271;-78
2021/07/04 03:48:17;;;;;;;;;7.33;7.33;;;;;18.22;76.62;100614.16;5102472;27;45342;-78
2021/07/04 03:50:43;;;;;;;;;6.67;5.67;;;;;18.20;76.62;100618.13;5102162;27;45295;-77
2021/07/04 03:53:09;;;;;;;;;6.33;6.33;;;;;18.20;76.33;100621.66;5102150;27;46074;-77
2021/07/04 03:55:34;;;;;;;;;8.00;8.00;;;;;18.13;76.31;100607.44;5102219;27;45260;-77
2021/07/04 03:58:00;;;;;;;;;9.00;9.00;;;;;18.10;76.47;100607.88;5083844;27;45346;-80
2021/07/04 04:00:25;;;;;;;;;8.00;6.67;;;;;18.19;76.65;100614.59;5101800;27;45339;-80
2021/07/04 04:02:51;;;;;;;;;9.33;9.33;;;;;18.20;76.11;100610.06;5101949;27;45366;-80
2021/07/04 04:05:16;;;;;;;;;8.00;7.67;;;;;18.25;76.51;100615.56;5102014;27;45414;-80
2021/07/04 04:07:42;;;;;;;;;8.00;8.00;;;;;18.23;76.50;100598.84;5102024;27;45337;-80
2021/07/04 04:10:10;;;;;;;;;8.33;7.33;;;;;18.26;76.32;100604.56;5101862;27;45527;-77
2021/07/04 04:12:36;;;;;;;;;8.00;8.00;;;;;18.28;76.74;100607.84;5101790;27;46187;-77
2021/07/04 04:15:01;;;;;;;;;8.33;8.33;;;;;18.28;76.96;100609.72;5101474;27;45185;-77
2021/07/04 04:17:28;;;;;;;;;9.00;9.00;;;;;18.25;76.74;100607.47;5102019;27;45256;-77
2021/07/04 04:19:54;;;;;;;;;7.33;7.33;;;;;18.25;76.57;100616.38;5101628;27;45356;-77
2021/07/04 04:22:20;;;;;;;;;8.00;8.00;;;;;18.24;76.80;100614.75;5101434;27;45385;-77
2021/07/04 04:24:45;;;;;;;;;7.67;7.67;;;;;18.28;77.07;100623.16;5101793;27;45337;-77
2021/07/04 04:27:11;;;;;;;;;10.00;9.00;;;;;18.24;76.63;100628.19;5100875;27;45404;-77
2021/07/04 04:29:36;;;;;;;;;7.67;7.33;;;;;18.21;78.29;100639.41;5101310;27;45362;-80
2021/07/04 04:32:02;;;;;;;;;12.00;10.67;;;;;18.15;82.71;100643.84;5066027;27;48492;-80
2021/07/04 04:34:28;;;;;;;;;8.00;8.00;;;;;17.93;82.13;100627.34;5101938;27;45212;-80
2021/07/04 04:36:53;;;;;;;;;11.00;9.00;;;;;17.72;83.02;100615.19;5083877;27;45351;-81
2021/07/04 04:39:20;;;;;;;;;10.67;9.00;;;;;17.59;85.28;100622.34;5084042;27;47559;-81
2021/07/04 04:41:47;;;;;;;;;7.00;7.00;;;;;17.46;86.30;100617.13;5102249;27;45276;-77
2021/07/04 04:44:12;;;;;;;;;10.33;8.33;;;;;-149.00;100.00;66333.84;5102952;27;45334;-79
2021/07/04 04:46:38;;;;;;;;;8.33;6.67;;;;;-149.00;100.00;66333.84;5104269;27;45380;-78
2021/07/04 04:49:03;;;;;;;;;7.00;5.00;;;;;-149.00;100.00;66333.84;5103812;27;45317;-77
2021/07/04 04:51:28;;;;;;;;;6.67;5.67;;;;;-149.00;100.00;66333.84;5105155;27;46458;-78
2021/07/04 04:53:54;;;;;;;;;8.33;7.00;;;;;-149.00;100.00;66333.84;5102327;27;45388;-76
2021/07/04 04:56:19;;;;;;;;;7.67;7.00;;;;;-149.00;100.00;66333.84;5101923;27;45557;-76
2021/07/04 04:58:45;;;;;;;;;7.00;7.00;;;;;-149.00;100.00;66333.84;5083463;27;47133;-79
2021/07/04 05:01:11;;;;;;;;;4.67;3.67;;;;;-149.00;100.00;66333.84;5101568;27;46450;-80
2021/07/04 05:03:36;;;;;;;;;4.33;3.00;;;;;-149.00;100.00;66333.84;5101461;27;45377;-78
2021/07/04 05:06:02;;;;;;;;;3.00;3.00;;;;;-149.00;100.00;66333.84;5082266;27;45341;-79
2021/07/04 05:08:28;;;;;;;;;3.00;3.00;;;;;-149.00;100.00;66333.84;5100856;27;45259;-80
2021/07/04 05:10:54;;;;;;;;;3.00;3.00;;;;;-149.00;100.00;66333.84;5104792;27;45316;-76
2021/07/04 05:13:19;;;;;;;;;4.00;4.00;;;;;-149.00;100.00;66333.84;5100991;27;45267;-79
2021/07/04 05:15:45;;;;;;;;;2.67;2.67;;;;;-149.00;100.00;66333.84;5101166;27;45205;-78
2021/07/04 05:18:11;;;;;;;;;4.00;4.00;;;;;-149.00;100.00;66333.84;5100863;27;46183;-78
2021/07/04 05:20:36;;;;;;;;;2.33;2.33;;;;;-149.00;100.00;66333.84;5100560;27;46131;-78
2021/07/04 05:23:02;;;;;;;;;2.67;2.67;;;;;-149.00;100.00;66333.84;5099224;27;45563;-77
2021/07/04 05:25:27;;;;;;;;;2.00;2.00;;;;;-149.00;100.00;66333.84;5101582;27;45560;-77
2021/07/04 05:27:53;;;;;;;;;3.67;2.33;;;;;-149.00;100.00;66333.84;5082554;27;46123;-77
2021/07/04 05:30:18;;;;;;;;;3.00;3.00;;;;;-149.00;100.00;66333.84;5099721;27;45394;-78
2021/07/04 05:32:43;;;;;;;;;3.00;3.00;;;;;-149.00;100.00;66333.84;5100069;27;45364;-81
2021/07/04 05:35:09;;;;;;;;;3.33;3.00;;;;;-149.00;100.00;66333.84;5100294;27;45373;-80
2021/07/04 05:37:35;;;;;;;;;4.33;3.00;;;;;-149.00;100.00;66333.84;5082578;27;47482;-79
2021/07/04 05:40:11;;;;;;;;;2.00;2.00;;;;;-149.00;100.00;66333.84;5100862;27;45400;-80
2021/07/04 05:42:36;;;;;;;;;2.00;2.00;;;;;-149.00;100.00;66333.84;5101042;27;45469;-80
2021/07/04 05:45:08;;;;;;;;;2.00;2.00;;;;;-149.00;100.00;66333.84;5100635;27;45917;-77
2021/07/04 05:47:33;;;;;;;;;3.00;2.33;;;;;-149.00;100.00;66333.84;5100333;27;45370;-76
2021/07/04 05:49:59;;;;;;;;;5.67;3.00;;;;;-149.00;100.00;66333.84;5082027;27;47117;-76
2021/07/04 05:52:24;;;;;;;;;3.67;3.67;;;;;-149.00;100.00;66333.84;5100285;27;45372;-76
2021/07/04 05:54:49;;;;;;;;;2.00;1.33;;;;;-149.00;100.00;66333.84;5100519;27;45315;-75
2021/07/04 05:57:15;;;;;;;;;2.00;2.00;;;;;-149.00;100.00;66333.84;5100291;27;45312;-78
2021/07/04 05:59:41;;;;;;;;;0.67;0.67;;;;;-149.00;100.00;66333.84;5081506;27;48264;-78
2021/07/04 06:02:07;;;;;;;;;2.00;2.00;;;;;-149.00;100.00;66333.84;5099346;27;45463;-82
2021/07/04 06:04:32;;;;;;;;;2.33;2.33;;;;;-149.00;100.00;66333.84;5099546;27;45444;-81
2021/07/04 06:06:58;;;;;;;;;3.00;3.00;;;;;-149.00;100.00;66333.84;5099145;27;45443;-81
2021/07/04 06:09:23;;;;;;;;;3.00;3.00;;;;;-149.00;100.00;66333.84;5099425;27;45452;-81
2021/07/04 06:11:49;;;;;;;;;3.00;3.00;;;;;-149.00;100.00;66333.84;5099767;27;45330;-77
2021/07/04 06:14:15;;;;;;;;;3.33;3.00;;;;;-149.00;100.00;66333.84;5100367;27;45307;-77
2021/07/04 06:16:41;;;;;;;;;5.00;4.00;;;;;-149.00;100.00;66333.84;5081347;27;46213;-77
2021/07/04 06:19:06;;;;;;;;;2.00;2.00;;;;;-149.00;100.00;66333.84;5099824;27;45228;-77
2021/07/04 06:21:32;;;;;;;;;3.33;2.67;;;;;-149.00;100.00;66333.84;5099985;27;45260;-78
2021/07/04 06:23:57;;;;;;;;;3.00;3.00;;;;;-149.00;100.00;66333.84;5100162;27;45509;-77
2021/07/04 06:26:22;;;;;;;;;4.33;3.00;;;;;-149.00;100.00;66333.84;5081371;27;46297;-77
2021/07/04 06:28:48;;;;;;;;;4.00;4.00;;;;;-149.00;100.00;66333.84;5099616;27;46351;-81
2021/07/04 06:31:13;;;;;;;;;6.00;4.00;;;;;-149.00;100.00;66333.84;5099384;27;45380;-81
2021/07/04 06:33:39;;;;;;;;;4.00;4.00;;;;;-149.00;100.00;66333.84;5081528;27;45314;-81
2021/07/04 06:36:04;;;;;;;;;4.33;4.00;;;;;-149.00;100.00;66333.84;5099659;27;45270;-78
2021/07/04 06:38:30;;;;;;;;;3.33;3.33;;;;;-149.00;100.00;66333.84;5099680;27;46124;-81
2021/07/04 06:40:55;;;;;;;;;3.00;3.00;;;;;-149.00;100.00;66333.84;5099722;27;45333;-78
2021/07/04 06:43:20;;;;;;;;;6.67;6.67;;;;;-149.00;100.00;66333.84;5099079;27;45749;-77
2021/07/04 06:45:46;;;;;;;;;5.00;4.00;;;;;-149.00;100.00;66333.84;5099439;27;45490;-77
2021/07/04 06:48:12;;;;;;;;;8.67;7.67;;;;;-149.00;100.00;66333.84;5081167;27;46147;-79
2021/07/04 06:50:37;;;;;;;;;6.00;5.00;;;;;-149.00;100.00;66333.84;5101626;27;45256;-80
2021/07/04 06:53:03;;;;;;;;;6.00;6.00;;;;;-149.00;100.00;66333.84;5103276;27;45296;-78
2021/07/04 06:55:28;;;;;;;;;5.33;5.33;;;;;-149.00;100.00;66333.84;5103107;27;45279;-77
2021/07/04 06:57:53;;;;;;;;;8.00;8.00;;;;;-149.00;100.00;66333.84;5102991;27;46077;-79
2021/07/04 07:00:19;;;;;;;;;7.33;7.33;;;;;-149.00;100.00;66333.84;5102750;27;45315;-79
2021/07/04 07:02:45;;;;;;;;;9.00;8.00;;;;;-149.00;100.00;66333.84;5103192;27;45298;-79
2021/07/04 07:05:12;;;;;;;;;9.00;7.67;;;;;-149.00;100.00;66333.84;5102553;27;45289;-80
2021/07/04 07:07:38;;;;;;;;;7.00;7.00;;;;;-149.00;100.00;66333.84;5101033;27;46087;-82
2021/07/04 07:10:09;;;;;;;;;8.00;8.00;;;;;-149.00;100.00;66333.84;5102670;27;45393;-82
2021/07/04 07:12:35;;;;;;;;;9.00;8.33;;;;;-149.00;100.00;66333.84;5084846;27;45379;-81
2021/07/04 07:15:01;;;;;;;;;7.00;7.00;;;;;-149.00;100.00;66333.84;5102485;27;45804;-82
2021/07/04 07:17:26;;;;;;;;;7.67;7.67;;;;;-149.00;100.00;66333.84;5084455;27;45277;-78
2021/07/04 07:19:52;;;;;;;;;7.67;6.00;;;;;-149.00;100.00;66333.84;5102475;27;45237;-75
2021/07/04 07:22:19;;;;;;;;;7.33;7.33;;;;;-149.00;100.00;66333.84;5102658;27;45321;-76
2021/07/04 07:24:45;;;;;;;;;8.33;8.33;;;;;-149.00;100.00;66333.84;5102632;27;45336;-77
2021/07/04 07:27:10;;;;;;;;;7.67;7.67;;;;;-149.00;100.00;66333.84;5102349;27;45423;-76
2021/07/04 07:29:36;;;;;;;;;7.67;7.67;;;;;-149.00;100.00;66333.84;5101997;27;45380;-79
2021/07/04 07:32:01;;;;;;;;;9.67;8.00;;;;;-149.00;100.00;66333.84;5102245;27;45342;-77
2021/07/04 07:34:26;;;;;;;;;7.00;7.00;;;;;-149.00;100.00;66333.84;5102605;27;45314;-78
2021/07/04 07:36:53;;;;;;;;;8.33;7.67;;;;;-149.00;100.00;66333.84;5101886;27;45973;-81
2021/07/04 07:39:18;;;;;;;;;9.33;7.67;;;;;-149.00;100.00;66333.84;5082487;27;45649;-76
2021/07/04 07:41:44;;;;;;;;;8.67;8.00;;;;;-149.00;100.00;66333.84;5100556;27;45278;-75
2021/07/04 07:44:12;;;;;;;;;7.00;7.00;;;;;-149.00;100.00;66333.84;5101164;27;45243;-78
2021/07/04 07:46:37;;;;;;;;;8.33;7.67;;;;;-149.00;100.00;66333.84;5099780;27;45410;-78
2021/07/04 07:49:04;;;;;;;;;9.33;9.33;;;;;-149.00;100.00;66333.84;5101989;27;45389;-82
2021/07/04 07:51:29;;;;;;;;;9.67;8.67;;;;;-149.00;100.00;66333.84;5101564;27;45682;-80
2021/07/04 07:53:55;;;;;;;;;10.00;10.00;;;;;-149.00;100.00;66333.84;5101705;27;45345;-80
2021/07/04 07:56:20;;;;;;;;;10.00;8.67;;;;;-149.00;100.00;66333.84;5081711;27;46988;-83
2021/07/04 07:58:45;;;;;;;;;11.33;8.00;;;;;-149.00;100.00;66333.84;5082309;27;45562;-82
2021/07/04 08:01:15;;;;;;;;;10.00;9.67;;;;;-149.00;100.00;66333.84;5080758;27;45750;-81
2021/07/04 08:03:40;;;;;;;;;10.00;10.00;;;;;-149.00;100.00;66333.84;5101707;27;45505;-80
2021/07/04 08:06:05;;;;;;;;;11.33;10.00;;;;;-149.00;100.00;66333.84;5100044;27;45989;-80
2021/07/04 08:08:31;;;;;;;;;8.67;8.67;;;;;-149.00;100.00;66333.84;5100322;27;45286;-80
2021/07/04 08:10:56;;;;;;;;;12.33;11.00;;;;;-149.00;100.00;66333.84;5100628;27;45299;-79
2021/07/04 08:13:21;;;;;;;;;9.00;9.00;;;;;-149.00;100.00;66333.84;5100172;27;45326;-79
2021/07/04 08:15:47;;;;;;;;;11.00;9.67;;;;;-149.00;100.00;66333.84;5099897;27;46073;-79
2021/07/04 08:18:12;;;;;;;;;10.67;10.67;;;;;-149.00;100.00;66333.84;5101312;27;45331;-80
2021/07/04 08:20:38;;;;;;;;;10.00;9.33;;;;;-149.00;100.00;66333.84;5102187;27;45355;-83
2021/07/04 08:23:03;;;;;;;;;11.00;11.00;;;;;-149.00;100.00;66333.84;5101633;27;45305;-82
2021/07/04 08:25:30;;;;;;;;;10.67;10.67;;;;;-149.00;100.00;66333.84;5101726;27;45348;-81
2021/07/04 08:27:55;;;;;;;;;9.67;9.67;;;;;-149.00;100.00;66333.84;5100637;27;45271;-81
2021/07/04 08:30:22;;;;;;;;;12.00;12.00;;;;;-149.00;100.00;66333.84;5066017;27;45579;-82
2021/07/04 08:32:47;;;;;;;;;12.00;12.00;;;;;-149.00;100.00;66333.84;5098096;27;45448;-82
2021/07/04 08:35:14;;;;;;;;;11.00;9.00;;;;;-149.00;100.00;66333.84;5092218;27;45351;-80
2021/07/04 08:37:39;;;;;;;;;13.67;10.33;;;;;-149.00;100.00;66333.84;5095253;27;45477;-80
2021/07/04 08:40:06;;;;;;;;;11.00;11.00;;;;;-149.00;100.00;66333.84;5091319;27;45349;-83
2021/07/04 08:42:31;;;;;;;;;8.00;6.00;;;;;-149.00;100.00;66333.84;5087417;27;45322;-85
2021/07/04 08:44:58;;;;;;;;;8.00;8.00;;;;;-149.00;100.00;66333.84;5091279;27;47585;-84
2021/07/04 08:47:24;;;;;;;;;8.33;8.33;;;;;-149.00;100.00;66333.84;5097359;27;45376;-82
2021/07/04 08:49:51;;;;;;;;;9.00;7.33;;;;;-149.00;100.00;66333.84;5092998;27;45366;-83
2021/07/04 08:52:18;;;;;;;;;9.00;7.33;;;;;-149.00;100.00;66333.84;5079918;27;46110;-78
2021/07/04 08:54:44;;;;;;;;;5.67;5.67;;;;;-149.00;100.00;66333.84;5095011;27;46305;-78
2021/07/04 08:57:10;;;;;;;;;4.00;4.00;;;;;-149.00;100.00;66333.84;5094874;27;45437;-79
2021/07/04 08:59:37;;;;;;;;;6.00;6.00;;;;;-149.00;100.00;66333.84;5088080;27;45208;-80
2021/07/04 09:02:04;;;;;;;;;7.00;6.67;;;;;-149.00;100.00;66333.84;5097272;27;45366;-78
2021/07/04 09:04:29;;;;;;;;;8.00;6.67;;;;;-149.00;100.00;66333.84;5096502;27;45450;-79
2021/07/04 09:06:56;;;;;;;;;5.00;5.00;;;;;-149.00;100.00;66333.84;5091881;27;45419;-82
2021/07/04 09:09:28;;;;;;;;;5.67;5.67;;;;;-149.00;100.00;66333.84;5086352;27;45439;-82
2021/07/04 09:11:59;;;;;;;;;5.33;5.33;;;;;-149.00;100.00;66333.84;5099261;27;45501;-84
2021/07/04 09:14:33;;;;;;;;;6.33;6.33;;;;;-149.00;100.00;66333.84;5074717;27;48366;-83
2021/07/04 09:16:59;;;;;;;;;3.33;3.33;;;;;-149.00;100.00;66333.84;5087723;27;45436;-83
2021/07/04 09:19:25;;;;;;;;;5.67;5.67;;;;;-149.00;100.00;66333.84;5094731;27;45427;-84
2021/07/04 09:22:06;;;;;;;;;4.00;4.00;;;;;-149.00;100.00;66333.84;5081496;27;45605;-83
2021/07/04 09:24:37;;;;;;;;;3.33;3.33;;;;;-149.00;100.00;66333.84;5084547;27;46069;-83
2021/07/04 09:27:04;;;;;;;;;3.67;3.67;;;;;-149.00;100.00;66333.84;5077781;27;45769;-84
2021/07/04 09:29:42;;;;;;;;;3.33;2.67;;;;;-149.00;100.00;66333.84;5082874;27;45426;-84
2021/07/04 09:32:24;;;;;;;;;2.00;2.00;;;;;-149.00;100.00;66333.84;5087108;27;46998;-82
2021/07/04 09:35:00;;;;;;;;;2.00;2.00;;;;;-149.00;100.00;66333.84;5076700;27;47563;-84
2021/07/04 09:37:27;;;;;;;;;1.33;1.33;;;;;-149.00;100.00;66333.84;5080129;27;45386;-83
2021/07/04 09:40:21;;;;;;;;;0.67;0.67;;;;;-149.00;100.00;66333.84;5076802;27;45446;-81
2021/07/04 09:43:04;;;;;;;;;0.00;0.00;;;;;-149.00;100.00;66333.84;5077856;27;45530;-83
2021/07/04 09:45:41;;;;;;;;;1.67;1.67;;;;;-149.00;100.00;66333.84;5077138;27;46061;-81
2021/07/04 09:48:07;;;;;;;;;1.00;1.00;;;;;-149.00;100.00;66333.84;5078169;27;45420;-81
2021/07/04 09:50:41;;;;;;;;;1.00;1.00;;;;;-149.00;100.00;66333.84;5079519;28;45392;-81
2021/07/04 09:53:07;;;;;;;;;0.67;0.33;;;;;-149.00;100.00;66333.84;5079433;28;45370;-82
2021/07/04 09:55:32;;;;;;;;;0.67;0.00;;;;;-149.00;100.00;66333.84;5079742;28;46312;-83
2021/07/04 09:58:07;;;;;;;;;1.67;1.67;;;;;-149.00;100.00;66333.84;5079486;28;45410;-82
2021/07/04 10:00:35;;;;;;;;;0.67;0.00;;;;;-149.00;100.00;66333.84;5079792;28;45318;-83
2021/07/04 10:03:20;;;;;;;;;1.67;1.67;;;;;-149.00;100.00;66333.84;5079826;28;45312;-83
2021/07/04 10:05:54;;;;;;;;;1.00;1.00;;;;;-149.00;100.00;66333.84;5079639;28;45285;-83
2021/07/04 10:08:20;;;;;;;;;0.00;0.00;;;;;-149.00;100.00;66333.84;5061290;28;45346;-80
2021/07/04 10:10:46;;;;;;;;;0.33;0.33;;;;;-149.00;100.00;66333.84;5079765;28;45342;-80
2021/07/04 10:13:11;;;;;;;;;1.00;1.00;;;;;-149.00;100.00;66333.84;5079667;28;45422;-81
2021/07/04 10:15:40;;;;;;;;;2.67;1.33;;;;;-149.00;100.00;66333.84;5060985;28;47264;-81
2021/07/04 10:18:07;;;;;;;;;2.00;2.00;;;;;-149.00;100.00;66333.84;5082000;27;45392;-80
2021/07/04 10:20:33;;;;;;;;;2.00;2.00;;;;;-149.00;100.00;66333.84;5099853;27;45332;-80
2021/07/04 10:22:59;;;;;;;;;1.33;1.33;;;;;-149.00;100.00;66333.84;5099716;27;46022;-80
2021/07/04 10:25:24;;;;;;;;;2.67;2.67;;;;;-149.00;100.00;66333.84;5101373;27;45372;-81
2021/07/04 10:27:50;;;;;;;;;1.00;1.00;;;;;-149.00;100.00;66333.84;5103523;27;45303;-82
2021/07/04 10:30:16;;;;;;;;;2.00;0.33;;;;;-149.00;100.00;66333.84;5103170;27;45368;-84
2021/07/04 10:33:21;;;;;;;;;3.00;1.67;;;;;-149.00;100.00;66333.84;5101785;27;45623;-81
2021/07/04 10:36:07;;;;;;;;;2.67;2.67;;;;;-149.00;100.00;66333.84;5101460;27;45658;-82
2021/07/04 10:38:56;;;;;;;;;2.33;2.33;;;;;-149.00;100.00;66333.84;5083292;27;46006;-82
2021/07/04 10:41:25;;;;;;;;;3.33;2.67;;;;;-149.00;100.00;66333.84;5102519;27;45481;-84
2021/07/04 10:44:10;;;;;;;;;2.00;2.00;;;;;-149.00;100.00;66333.84;5084858;27;46000;-85
2021/07/04 10:46:44;;;;;;;;;1.67;1.67;;;;;-149.00;100.00;66333.84;5102601;27;45551;-83
2021/07/04 10:49:12;;;;;;;;;4.67;3.00;;;;;-149.00;100.00;66333.84;5084859;27;45381;-82
2021/07/04 10:52:06;;;;;;;;;2.00;2.00;;;;;-149.00;100.00;66333.84;5103224;27;45398;-83
2021/07/04 10:57:07;;;;;;;;;3.67;2.00;;;;;-149.00;100.00;66333.84;5099660;27;45463;-81
2021/07/04 10:59:33;;;;;;;;;3.00;3.00;;;;;-149.00;100.00;66333.84;5083661;27;45298;-87
2021/07/04 11:02:01;;;;;;;;;4.00;4.00;;;;;-149.00;100.00;66333.84;5102460;27;45435;-82
2021/07/04 11:04:32;;;;;;;;;4.67;3.00;;;;;-149.00;100.00;66333.84;5102008;27;45525;-83
2021/07/04 11:07:02;;;;;;;;;3.00;3.00;;;;;-149.00;100.00;66333.84;5082775;27;48253;-84
2021/07/04 11:09:52;;;;;;;;;3.00;1.33;;;;;-149.00;100.00;66333.84;5097547;27;45473;-83
2021/07/04 11:12:31;;;;;;;;;3.00;3.00;;;;;-149.00;100.00;66333.84;5098868;27;45347;-86
2021/07/04 11:15:15;;;;;;;;;1.67;1.67;;;;;-149.00;100.00;66333.84;5100345;27;45529;-84
2021/07/04 11:17:59;;;;;;;;;3.67;2.00;;;;;-149.00;100.00;66333.84;5097149;27;46893;-84